createdAt,value
2022-11-23T00:04:14.166Z,81.83
2022-11-23T00:09:17.317Z,83.60
2022-11-23T00:14:20.437Z,74.83
2022-11-23T00:19:23.588Z,81.77
2022-11-23T00:24:27.104Z,66.87
2022-11-23T00:29:30.517Z,82.43
2022-11-23T00:34:34.309Z,69.93
2022-11-23T00:39:37.448Z,84.70
2022-11-23T00:44:40.590Z,84.83
2022-11-23T00:49:43.760Z,83.33
2022-11-23T00:54:47.054Z,82.63
2022-11-23T00:59:50.448Z,76.37
2022-11-23T01:04:53.622Z,83.10
2022-11-23T01:09:58.039Z,80.23
2022-11-23T01:15:01.147Z,83.83
2022-11-23T01:20:04.887Z,97.03
2022-11-23T01:25:09.052Z,76.43
2022-11-23T01:30:12.820Z,75.67
2022-11-23T01:35:16.458Z,76.93
2022-11-23T01:40:19.729Z,73.13
2022-11-23T01:45:33.658Z,71.43
2022-11-23T01:50:37.435Z,67.50
2022-11-23T01:55:43.447Z,86.17
2022-11-23T02:00:47.597Z,85.07
2022-11-23T02:06:00.429Z,73.93
2022-11-23T02:11:04.260Z,68.90
2022-11-23T02:16:07.629Z,70.67
2022-11-23T02:21:11.219Z,90.30
2022-11-23T02:26:36.671Z,77.87
2022-11-23T02:31:39.869Z,86.03
2022-11-23T02:36:44.491Z,76.53
2022-11-23T02:41:57.673Z,73.20
2022-11-23T02:47:01.229Z,85.07
2022-11-23T02:52:05.098Z,67.03
2022-11-23T02:57:08.869Z,85.47
2022-11-23T03:02:12.087Z,92.70
2022-11-23T03:07:15.384Z,68.10
2022-11-23T03:12:18.609Z,81.30
2022-11-23T03:17:21.980Z,75.07
2022-11-23T03:22:25.590Z,69.47
2022-11-23T03:27:29.739Z,68.73
2022-11-23T03:32:33.017Z,80.50
2022-11-23T03:37:36.270Z,71.47
2022-11-23T03:42:41.447Z,69.23
2022-11-23T03:47:45.051Z,75.30
2022-11-23T03:52:51.367Z,72.23
2022-11-23T03:57:55.552Z,69.90
2022-11-23T04:02:59.204Z,73.80
2022-11-23T04:08:02.430Z,72.40
2022-11-23T04:13:05.875Z,83.50
2022-11-23T04:18:09.026Z,74.57
2022-11-23T04:23:13.644Z,67.97
2022-11-23T04:28:16.920Z,72.33
2022-11-23T04:33:20.041Z,69.47
2022-11-23T04:38:23.111Z,79.30
2022-11-23T04:43:26.288Z,69.47
2022-11-23T04:48:29.551Z,70.67
2022-11-23T04:53:32.689Z,67.63
2022-11-23T04:58:36.958Z,71.10
2022-11-23T05:03:40.097Z,60.07
2022-11-23T05:08:43.572Z,62.37
2022-11-23T05:13:46.886Z,63.73
2022-11-23T05:18:50.074Z,74.20
2022-11-23T05:23:53.204Z,67.90
2022-11-23T05:28:56.372Z,58.77
2022-11-23T05:33:59.581Z,58.30
2022-11-23T05:39:02.703Z,59.50
2022-11-23T05:44:06.204Z,71.63
2022-11-23T05:49:10.573Z,63.33
2022-11-23T05:54:14.204Z,73.70
2022-11-23T05:59:17.536Z,66.33
2022-11-23T06:04:20.932Z,70.30
2022-11-23T06:09:24.415Z,71.40
2022-11-23T06:14:27.763Z,64.50
2022-11-23T06:19:31.311Z,69.93
2022-11-23T06:24:35.523Z,74.63
2022-11-23T06:29:39.026Z,62.27
2022-11-23T06:34:42.155Z,61.50
2022-11-23T06:39:46.022Z,64.40
2022-11-23T06:44:49.402Z,68.23
2022-11-23T06:49:52.976Z,73.77
2022-11-23T06:54:56.269Z,55.07
2022-11-23T06:59:59.663Z,67.03
2022-11-23T07:05:02.939Z,68.17
2022-11-23T07:10:07.445Z,78.07
2022-11-23T07:15:12.243Z,68.00
2022-11-23T07:20:16.692Z,58.90
2022-11-23T07:25:19.985Z,62.67
2022-11-23T07:30:27.960Z,61.37
2022-11-23T07:35:36.351Z,71.43
2022-11-23T07:40:40.213Z,64.83
2022-11-23T07:45:48.797Z,62.77
2022-11-23T07:50:55.840Z,74.97
2022-11-23T07:56:09.597Z,59.73
2022-11-23T08:01:28.936Z,84.07
2022-11-23T08:08:46.658Z,77.67
2022-11-23T08:13:05.725Z,57.80
2022-11-23T08:18:10.303Z,60.50
2022-11-23T08:23:13.614Z,61.90
2022-11-23T08:28:17.550Z,61.87
2022-11-23T08:33:20.640Z,61.33
2022-11-23T08:38:23.888Z,58.20
2022-11-23T08:43:27.913Z,76.67
2022-11-23T08:48:31.224Z,71.93
2022-11-23T08:53:34.993Z,67.43
2022-11-23T08:58:38.360Z,62.93
2022-11-23T09:03:42.333Z,64.80
2022-11-23T09:08:45.576Z,53.20
2022-11-23T09:13:49.402Z,62.20
2022-11-23T09:18:56.764Z,62.53
2022-11-23T09:24:00.388Z,67.53
2022-11-23T09:29:05.437Z,59.23
2022-11-23T09:34:10.823Z,64.57
2022-11-23T09:39:13.963Z,65.53
2022-11-23T09:44:17.170Z,67.87
2022-11-23T09:49:30.772Z,79.70
2022-11-23T09:54:40.635Z,73.07
2022-11-23T09:59:51.604Z,71.37
2022-11-23T10:04:56.423Z,65.63
2022-11-23T10:10:19.886Z,66.37
2022-11-23T10:15:29.684Z,55.57
2022-11-23T10:21:02.155Z,73.03
2022-11-23T10:26:07.699Z,75.93
2022-11-23T10:31:17.093Z,64.07
2022-11-23T10:36:20.724Z,69.20
2022-11-23T10:41:24.175Z,70.00
2022-11-23T10:46:37.634Z,64.27
2022-11-23T10:51:41.465Z,62.20
2022-11-23T10:56:50.125Z,75.93
2022-11-23T11:02:02.129Z,61.73
2022-11-23T11:07:26.758Z,56.47
2022-11-23T11:12:33.220Z,57.37
2022-11-23T11:17:38.294Z,52.63
2022-11-23T11:22:47.428Z,55.23
2022-11-23T11:27:54.422Z,63.00
2022-11-23T11:33:18.349Z,58.33
2022-11-23T11:38:32.318Z,52.23
2022-11-23T11:43:45.466Z,50.10
2022-11-23T11:49:15.233Z,56.53
2022-11-23T11:54:41.594Z,57.73
2022-11-23T11:59:50.447Z,61.87
2022-11-23T12:05:11.342Z,72.93
2022-11-23T12:10:38.953Z,60.40
2022-11-23T12:15:49.843Z,49.10
2022-11-23T12:21:18.611Z,53.03
2022-11-23T12:26:31.082Z,50.40
2022-11-23T12:31:40.114Z,49.70
2022-11-23T12:36:43.440Z,39.53
2022-11-23T12:41:55.374Z,48.50
2022-11-23T12:47:24.115Z,53.27
2022-11-23T12:52:56.048Z,73.43
2022-11-23T12:58:06.934Z,61.17
2022-11-23T13:03:47.735Z,53.90
2022-11-23T13:09:02.704Z,51.40
2022-11-23T13:14:16.766Z,52.80
2022-11-23T13:19:43.662Z,45.37
2022-11-23T13:25:14.568Z,46.27
2022-11-23T13:30:51.866Z,51.00
2022-11-23T13:36:07.032Z,54.53
2022-11-23T13:41:37.990Z,48.20
2022-11-23T13:46:42.468Z,50.70
2022-11-23T13:52:23.255Z,53.40
2022-11-23T13:57:26.940Z,48.87
2022-11-23T14:02:31.316Z,47.87
2022-11-23T14:07:46.374Z,48.43
2022-11-23T14:13:17.029Z,51.57
2022-11-23T14:18:47.783Z,60.23
2022-11-23T14:24:15.676Z,53.73
2022-11-23T14:29:27.664Z,46.37
2022-11-23T14:34:56.715Z,44.87
2022-11-23T14:40:45.636Z,48.97
2022-11-23T14:45:49.226Z,51.97
2022-11-23T14:51:14.648Z,63.20
2022-11-23T14:56:30.404Z,62.20
2022-11-23T15:01:35.117Z,66.13
2022-11-23T15:06:45.973Z,62.37
2022-11-23T15:12:12.490Z,64.57
2022-11-23T15:17:35.310Z,63.10
2022-11-23T15:23:10.984Z,66.27
2022-11-23T15:28:18.461Z,67.77
2022-11-23T15:33:23.969Z,58.30
2022-11-23T15:38:27.899Z,59.27
2022-11-23T15:43:31.372Z,59.67
2022-11-23T15:48:36.034Z,57.63
2022-11-23T15:53:49.974Z,64.63
2022-11-23T15:58:54.590Z,50.43
2022-11-23T16:04:05.296Z,58.23
2022-11-23T16:09:54.229Z,64.20
2022-11-23T16:15:18.997Z,56.13
2022-11-23T16:20:25.127Z,56.27
2022-11-23T16:25:36.115Z,60.73
2022-11-23T16:30:42.315Z,55.77
2022-11-23T16:35:48.335Z,58.53
2022-11-23T16:40:53.056Z,74.40
2022-11-23T16:45:56.531Z,71.43
2022-11-23T16:51:00.600Z,63.23
2022-11-23T16:56:05.115Z,82.80
2022-11-23T17:01:20.613Z,73.80
2022-11-23T17:06:24.864Z,67.03
2022-11-23T17:11:31.314Z,61.70
2022-11-23T17:16:35.728Z,61.43
2022-11-23T17:21:39.394Z,72.97
2022-11-23T17:26:46.074Z,62.33
2022-11-23T17:31:51.381Z,75.60
2022-11-23T17:36:54.904Z,73.77
2022-11-23T17:42:04.617Z,70.37
2022-11-23T17:47:27.196Z,65.73
2022-11-23T17:52:31.471Z,64.13
2022-11-23T17:57:35.363Z,58.30
2022-11-23T18:02:40.085Z,64.93
2022-11-23T18:07:46.194Z,55.80
2022-11-23T18:12:53.133Z,84.67
2022-11-23T18:18:00.245Z,78.40
2022-11-23T18:23:09.704Z,80.70
2022-11-23T18:28:19.383Z,83.10
2022-11-23T18:33:25.478Z,83.03
2022-11-23T18:38:33.584Z,90.67
2022-11-23T18:43:41.214Z,83.60
2022-11-23T18:48:48.452Z,97.30
2022-11-23T18:53:57.000Z,68.87
2022-11-23T18:59:01.953Z,79.77
2022-11-23T19:04:07.410Z,70.03
2022-11-23T19:09:14.701Z,66.97
2022-11-23T19:14:20.561Z,59.73
2022-11-23T19:19:25.744Z,79.03
2022-11-23T19:24:31.448Z,62.57
2022-11-23T19:29:35.959Z,75.87
2022-11-23T19:34:41.715Z,62.17
2022-11-23T19:39:48.616Z,77.70
2022-11-23T19:44:53.802Z,60.87
2022-11-23T19:49:59.197Z,60.33
2022-11-23T19:55:04.255Z,67.53
2022-11-23T20:00:10.293Z,73.10
2022-11-23T20:05:14.904Z,64.27
2022-11-23T20:10:19.053Z,72.23
2022-11-23T20:15:25.084Z,75.57
2022-11-23T20:20:29.537Z,63.40
2022-11-23T20:25:39.234Z,66.03
2022-11-23T20:30:45.315Z,62.80
2022-11-23T20:35:51.558Z,53.87
2022-11-23T20:40:56.509Z,61.30
2022-11-23T20:46:01.222Z,56.80
2022-11-23T20:51:10.639Z,59.67
2022-11-23T20:56:15.164Z,58.30
2022-11-23T21:01:22.384Z,76.17
2022-11-23T21:06:34.444Z,51.93
2022-11-23T21:12:03.491Z,62.90
2022-11-23T21:17:08.107Z,54.40
2022-11-23T21:22:16.547Z,58.60
2022-11-23T21:27:24.244Z,55.73
2022-11-23T21:32:28.911Z,63.00
2022-11-23T21:37:32.853Z,58.40
2022-11-23T21:42:36.115Z,63.53
2022-11-23T21:47:39.616Z,63.97
2022-11-23T21:52:42.765Z,59.03
2022-11-23T21:57:46.577Z,58.40
2022-11-23T22:02:50.411Z,62.83
2022-11-23T22:08:27.763Z,65.27
2022-11-23T22:13:18.026Z,56.40
2022-11-23T22:18:22.453Z,61.60
2022-11-23T22:23:26.541Z,58.37
2022-11-23T22:28:35.384Z,58.33
2022-11-23T22:33:39.798Z,55.27
2022-11-23T22:38:43.817Z,40.43
2022-11-23T22:43:47.915Z,61.07
2022-11-23T22:48:52.699Z,53.43
2022-11-23T22:53:58.219Z,68.17
2022-11-23T22:59:02.070Z,67.37
2022-11-23T23:04:06.013Z,54.30
2022-11-23T23:09:10.645Z,65.53
2022-11-23T23:14:14.253Z,69.27
2022-11-23T23:19:17.849Z,58.77
2022-11-23T23:24:21.328Z,66.73
2022-11-23T23:29:24.660Z,58.40
2022-11-23T23:34:28.156Z,77.33
2022-11-23T23:39:31.913Z,68.50
2022-11-23T23:44:37.594Z,63.37
2022-11-23T23:49:41.075Z,59.70
2022-11-23T23:54:44.783Z,69.30
2022-11-23T23:59:48.274Z,62.00
